createdAt,value
2023-02-16T00:01:34.063Z,154.07
2023-02-16T00:04:09.521Z,151.57
2023-02-16T00:06:38.228Z,145.57
2023-02-16T00:09:06.483Z,145.05
2023-02-16T00:11:54.947Z,150.07
2023-02-16T00:14:26.330Z,147.35
2023-02-16T00:16:59.610Z,140.70
2023-02-16T00:19:29.969Z,147.50
2023-02-16T00:22:00.190Z,157.00
2023-02-16T00:24:29.779Z,153.85
2023-02-16T00:26:59.686Z,157.10
2023-02-16T00:29:31.051Z,177.27
2023-02-16T00:32:01.639Z,237.57
2023-02-16T00:34:38.763Z,273.88
2023-02-16T00:37:10.047Z,232.93
2023-02-16T00:39:40.284Z,228.30
2023-02-16T00:42:20.192Z,219.02
2023-02-16T00:44:50.917Z,209.20
2023-02-16T00:47:30.122Z,206.10
2023-02-16T00:49:58.857Z,206.77
2023-02-16T00:52:35.409Z,190.18
2023-02-16T00:55:13.448Z,181.70
2023-02-16T00:57:50.086Z,186.25
2023-02-16T01:00:32.266Z,189.77
2023-02-16T01:03:07.886Z,183.80
2023-02-16T01:05:37.697Z,176.68
2023-02-16T01:08:34.002Z,178.68
2023-02-16T01:11:04.675Z,159.25
2023-02-16T01:13:42.777Z,169.88
2023-02-16T01:16:17.857Z,155.05
2023-02-16T01:18:47.325Z,156.18
2023-02-16T01:21:16.249Z,157.70
2023-02-16T01:23:44.948Z,155.43
2023-02-16T01:26:19.517Z,145.98
2023-02-16T01:28:48.699Z,149.27
2023-02-16T01:31:19.790Z,150.80
2023-02-16T01:33:48.896Z,147.65
2023-02-16T01:36:26.580Z,143.73
2023-02-16T01:38:55.207Z,147.20
2023-02-16T01:42:03.123Z,148.90
2023-02-16T01:44:41.511Z,146.30
2023-02-16T01:47:50.220Z,137.50
2023-02-16T01:50:24.740Z,145.23
2023-02-16T01:53:00.377Z,153.57
2023-02-16T01:55:30.740Z,146.43
2023-02-16T01:58:21.419Z,133.98
2023-02-16T02:00:50.066Z,136.80
2023-02-16T02:03:53.050Z,159.65
2023-02-16T02:06:35.147Z,141.13
2023-02-16T02:09:06.888Z,157.57
2023-02-16T02:11:46.912Z,157.07
2023-02-16T02:14:24.397Z,154.77
2023-02-16T02:16:58.528Z,143.75
2023-02-16T02:19:28.647Z,129.52
2023-02-16T02:22:34.495Z,130.95
2023-02-16T02:25:09.764Z,138.57
2023-02-16T02:27:50.317Z,138.07
2023-02-16T02:30:30.998Z,141.10
2023-02-16T02:33:10.130Z,151.23
2023-02-16T02:36:00.760Z,151.82
2023-02-16T02:38:56.549Z,140.52
2023-02-16T02:41:56.769Z,147.13
2023-02-16T02:44:29.176Z,143.32
2023-02-16T02:46:57.899Z,141.48
2023-02-16T02:49:26.532Z,140.88
2023-02-16T02:51:55.069Z,164.20
2023-02-16T02:54:46.565Z,144.60
2023-02-16T03:00:34.232Z,139.45
2023-02-16T03:03:06.547Z,143.73
2023-02-16T03:05:39.420Z,133.07
2023-02-16T03:08:15.391Z,150.15
2023-02-16T03:11:08.922Z,136.77
2023-02-16T03:13:42.411Z,303.95
2023-02-16T03:16:22.678Z,233.25
2023-02-16T03:19:10.412Z,384.10
2023-02-16T03:21:59.058Z,439.75
2023-02-16T03:24:49.516Z,798.30
2023-02-16T03:27:42.864Z,434.17
2023-02-16T03:30:12.992Z,713.97
2023-02-16T03:32:41.822Z,767.47
2023-02-16T03:35:12.881Z,490.98
2023-02-16T03:37:43.078Z,500.95
2023-02-16T03:40:29.966Z,622.28
2023-02-16T03:43:09.050Z,827.75
2023-02-16T03:45:41.189Z,638.85
2023-02-16T03:48:10.393Z,513.15
2023-02-16T03:50:38.693Z,742.92
2023-02-16T03:53:07.588Z,345.05
2023-02-16T03:55:41.702Z,468.13
2023-02-16T03:58:12.653Z,361.98
2023-02-16T04:00:41.371Z,451.90
2023-02-16T04:03:10.121Z,473.08
2023-02-16T04:05:38.788Z,339.70
2023-02-16T04:08:08.518Z,617.42
2023-02-16T04:10:38.267Z,640.33
2023-02-16T04:13:07.375Z,499.92
2023-02-16T04:15:35.807Z,502.27
2023-02-16T04:18:04.571Z,697.42
2023-02-16T04:20:37.091Z,644.97
2023-02-16T04:23:06.008Z,641.47
2023-02-16T04:25:36.005Z,641.17
2023-02-16T04:28:04.802Z,559.95
2023-02-16T04:30:33.261Z,510.95
2023-02-16T04:33:02.134Z,754.45
2023-02-16T04:35:30.475Z,648.85
2023-02-16T04:37:59.027Z,731.60
2023-02-16T04:40:27.372Z,600.60
2023-02-16T04:42:56.037Z,740.83
2023-02-16T04:45:24.376Z,768.67
2023-02-16T04:47:52.984Z,521.38
2023-02-16T04:50:21.334Z,616.72
2023-02-16T04:52:49.997Z,518.75
2023-02-16T04:55:18.404Z,426.08
2023-02-16T04:57:46.990Z,460.33
2023-02-16T05:00:15.561Z,433.67
2023-02-16T05:02:44.339Z,476.35
2023-02-16T05:05:12.807Z,420.42
2023-02-16T05:07:41.431Z,635.38
2023-02-16T05:10:10.309Z,562.05
2023-02-16T05:12:57.518Z,553.17
2023-02-16T05:15:25.900Z,561.97
2023-02-16T05:17:54.998Z,674.97
2023-02-16T05:20:43.332Z,719.20
2023-02-16T05:23:13.526Z,465.02
2023-02-16T05:25:46.043Z,443.75
2023-02-16T05:28:15.160Z,477.40
2023-02-16T05:30:43.693Z,464.25
2023-02-16T05:33:12.333Z,851.03
2023-02-16T05:35:40.722Z,412.33
2023-02-16T05:38:09.295Z,388.88
2023-02-16T05:40:37.589Z,473.95
2023-02-16T05:43:06.522Z,343.00
2023-02-16T05:45:34.925Z,481.00
2023-02-16T05:48:03.495Z,558.80
2023-02-16T05:50:31.782Z,486.48
2023-02-16T05:53:01.001Z,263.00
2023-02-16T05:55:29.499Z,310.98
2023-02-16T05:58:05.612Z,307.05
2023-02-16T06:00:33.927Z,307.10
2023-02-16T06:03:02.667Z,314.77
2023-02-16T06:05:31.078Z,290.67
2023-02-16T06:07:59.816Z,290.00
2023-02-16T06:10:28.442Z,322.52
2023-02-16T06:12:57.271Z,282.98
2023-02-16T06:15:25.498Z,260.63
2023-02-16T06:17:54.054Z,254.88
2023-02-16T06:20:22.378Z,269.42
2023-02-16T06:22:50.907Z,277.23
2023-02-16T06:25:20.497Z,267.60
2023-02-16T06:27:50.180Z,300.67
2023-02-16T06:30:19.658Z,277.58
2023-02-16T06:32:48.533Z,283.67
2023-02-16T06:35:17.295Z,271.90
2023-02-16T06:37:46.052Z,271.45
2023-02-16T06:40:15.063Z,260.70
2023-02-16T06:42:44.022Z,261.38
2023-02-16T06:45:12.848Z,261.60
2023-02-16T06:47:41.725Z,254.88
2023-02-16T06:50:10.546Z,266.63
2023-02-16T06:52:39.095Z,265.42
2023-02-16T06:55:07.877Z,295.48
2023-02-16T06:57:36.498Z,288.52
2023-02-16T07:00:07.329Z,293.85
2023-02-16T07:02:35.992Z,317.50
2023-02-16T07:05:04.618Z,330.50
2023-02-16T07:07:33.155Z,316.10
2023-02-16T07:10:02.890Z,274.08
2023-02-16T07:12:31.755Z,254.50
2023-02-16T07:15:00.371Z,247.05
2023-02-16T07:17:29.147Z,231.63
2023-02-16T07:19:59.881Z,224.90
2023-02-16T07:22:29.954Z,227.93
2023-02-16T07:25:00.715Z,252.48
2023-02-16T07:27:29.452Z,238.57
2023-02-16T07:29:57.862Z,242.40
2023-02-16T07:32:27.243Z,251.40
2023-02-16T07:34:55.627Z,260.67
2023-02-16T07:37:24.283Z,264.52
2023-02-16T07:39:53.364Z,285.33
2023-02-16T07:42:22.208Z,321.95
2023-02-16T07:44:52.986Z,314.38
2023-02-16T07:47:21.743Z,298.60
2023-02-16T07:49:50.142Z,282.77
2023-02-16T07:52:18.830Z,269.45
2023-02-16T07:54:47.234Z,246.77
2023-02-16T07:57:15.794Z,221.57
2023-02-16T07:59:44.045Z,180.45
2023-02-16T08:02:17.225Z,210.13
2023-02-16T08:04:46.657Z,201.65
2023-02-16T08:07:17.324Z,197.70
2023-02-16T08:09:45.651Z,199.00
2023-02-16T08:12:16.048Z,214.27
2023-02-16T08:14:46.727Z,195.15
2023-02-16T08:17:15.968Z,194.67
2023-02-16T08:19:44.272Z,182.68
2023-02-16T08:22:12.849Z,171.43
2023-02-16T08:24:41.344Z,165.85
2023-02-16T08:27:11.139Z,153.93
2023-02-16T08:29:41.809Z,137.18
2023-02-16T08:32:14.737Z,140.05
2023-02-16T08:34:43.604Z,153.43
2023-02-16T08:37:13.885Z,147.73
2023-02-16T08:39:42.558Z,149.05
2023-02-16T08:42:13.710Z,128.25
2023-02-16T08:44:42.560Z,95.07
2023-02-16T08:47:11.792Z,80.25
2023-02-16T08:49:40.148Z,79.85
2023-02-16T08:52:10.379Z,107.20
2023-02-16T08:54:40.099Z,130.90
2023-02-16T08:57:09.469Z,117.00
2023-02-16T08:59:37.750Z,120.93
2023-02-16T09:02:06.729Z,138.85
2023-02-16T09:04:36.854Z,88.50
2023-02-16T09:07:05.738Z,112.22
2023-02-16T09:09:34.523Z,116.20
2023-02-16T09:12:03.337Z,99.85
2023-02-16T09:14:31.515Z,89.03
2023-02-16T09:17:00.153Z,99.22
2023-02-16T09:19:28.498Z,98.00
2023-02-16T09:21:57.281Z,85.75
2023-02-16T09:24:27.067Z,94.35
2023-02-16T09:26:55.886Z,76.90
2023-02-16T09:29:24.256Z,66.75
2023-02-16T09:31:57.884Z,64.53
2023-02-16T09:34:28.083Z,62.17
2023-02-16T09:36:56.833Z,83.57
2023-02-16T09:39:26.215Z,84.45
2023-02-16T09:41:54.844Z,81.07
2023-02-16T09:44:39.499Z,77.07
2023-02-16T09:47:32.234Z,81.15
2023-02-16T09:50:06.709Z,75.32
2023-02-16T09:52:40.446Z,81.68
2023-02-16T09:55:15.261Z,63.67
2023-02-16T09:57:55.848Z,80.07
2023-02-16T10:00:33.447Z,59.53
2023-02-16T10:03:41.537Z,79.03
2023-02-16T10:06:27.638Z,79.20
2023-02-16T10:09:01.043Z,79.43
2023-02-16T10:11:38.198Z,73.00
2023-02-16T10:14:31.823Z,80.13
2023-02-16T10:17:24.114Z,75.35
2023-02-16T10:19:56.427Z,76.85
2023-02-16T10:25:17.076Z,72.83
2023-02-16T10:27:50.449Z,65.80
2023-02-16T10:30:22.772Z,71.28
2023-02-16T10:35:38.418Z,70.22
2023-02-16T10:38:16.284Z,65.53
2023-02-16T10:41:26.593Z,60.40
2023-02-16T10:44:13.794Z,78.72
2023-02-16T10:46:47.479Z,65.82
2023-02-16T10:49:17.629Z,63.70
2023-02-16T10:51:50.578Z,64.05
2023-02-16T10:54:29.530Z,61.83
2023-02-16T10:57:06.842Z,71.20
2023-02-16T10:59:43.915Z,73.60
2023-02-16T11:02:23.979Z,61.38
2023-02-16T11:04:55.658Z,61.58
2023-02-16T11:07:30.372Z,59.58
2023-02-16T11:10:18.824Z,62.10
2023-02-16T11:12:57.506Z,60.80
2023-02-16T11:15:27.706Z,58.28
2023-02-16T11:17:56.312Z,59.13
2023-02-16T11:20:46.756Z,56.92
2023-02-16T11:23:33.373Z,57.53
2023-02-16T11:26:26.554Z,56.03
2023-02-16T11:29:27.822Z,57.53
2023-02-16T11:31:56.754Z,55.67
2023-02-16T11:34:43.349Z,54.63
2023-02-16T11:37:34.167Z,53.40
2023-02-16T11:40:18.510Z,51.15
2023-02-16T11:42:57.610Z,54.33
2023-02-16T11:45:31.366Z,52.72
2023-02-16T11:48:12.613Z,53.35
2023-02-16T11:50:58.381Z,49.45
2023-02-16T11:53:31.205Z,50.90
2023-02-16T11:56:13.530Z,51.50
2023-02-16T11:58:41.883Z,51.75
2023-02-16T12:01:21.599Z,52.97
2023-02-16T12:04:31.493Z,52.03
2023-02-16T12:07:16.890Z,51.40
2023-02-16T12:09:50.781Z,49.85
2023-02-16T12:12:37.602Z,49.20
2023-02-16T12:15:15.282Z,44.80
2023-02-16T12:18:03.810Z,51.10
2023-02-16T12:20:45.791Z,46.83
2023-02-16T12:23:42.099Z,44.28
2023-02-16T12:26:41.684Z,45.00
2023-02-16T12:29:18.475Z,42.75
2023-02-16T12:32:19.161Z,41.03
2023-02-16T12:35:29.616Z,38.80
2023-02-16T12:38:18.774Z,44.97
2023-02-16T12:40:58.346Z,46.10
2023-02-16T12:43:32.643Z,48.92
2023-02-16T12:46:27.208Z,47.08
2023-02-16T12:49:42.055Z,49.63
2023-02-16T12:52:21.169Z,49.28
2023-02-16T12:55:14.560Z,49.40
2023-02-16T12:57:51.782Z,54.33
2023-02-16T13:00:33.230Z,49.03
2023-02-16T13:05:53.782Z,51.20
2023-02-16T13:08:39.376Z,50.13
2023-02-16T13:11:19.294Z,52.70
2023-02-16T13:13:53.889Z,55.85
2023-02-16T13:16:30.898Z,45.60
2023-02-16T13:19:06.277Z,51.15
2023-02-16T13:21:51.218Z,54.67
2023-02-16T13:24:51.628Z,53.03
2023-02-16T13:27:31.895Z,54.80
2023-02-16T13:30:24.914Z,57.17
2023-02-16T13:32:57.725Z,54.20
2023-02-16T13:35:57.491Z,56.95
2023-02-16T13:38:58.402Z,52.85
2023-02-16T13:41:49.840Z,57.80
2023-02-16T13:44:35.142Z,53.75
2023-02-16T13:47:07.971Z,54.90
2023-02-16T13:49:43.188Z,56.58
2023-02-16T13:52:31.348Z,55.40
2023-02-16T13:55:03.426Z,56.60
2023-02-16T13:57:51.776Z,52.15
2023-02-16T14:00:38.457Z,54.50
2023-02-16T14:03:13.522Z,57.10
2023-02-16T14:05:44.875Z,53.95
2023-02-16T14:08:17.145Z,50.90
2023-02-16T14:13:32.165Z,54.85
2023-02-16T14:16:22.769Z,50.72
2023-02-16T14:19:04.814Z,55.08
2023-02-16T14:21:40.750Z,53.22
2023-02-16T14:24:29.757Z,52.72
2023-02-16T14:27:13.740Z,52.88
2023-02-16T14:30:02.917Z,51.97
2023-02-16T14:32:38.997Z,51.83
2023-02-16T14:35:34.034Z,55.13
2023-02-16T14:38:16.659Z,56.08
2023-02-16T14:41:15.927Z,52.83
2023-02-16T14:43:49.863Z,50.65
2023-02-16T14:47:08.424Z,50.63
2023-02-16T14:49:57.208Z,54.55
2023-02-16T14:53:07.883Z,54.10
2023-02-16T14:56:10.216Z,54.70
2023-02-16T14:59:06.867Z,53.03
2023-02-16T15:01:43.517Z,56.63
2023-02-16T15:04:13.204Z,57.40
2023-02-16T15:06:45.160Z,56.80
2023-02-16T15:09:24.192Z,59.15
2023-02-16T15:12:13.928Z,58.30
2023-02-16T15:15:04.765Z,55.75
2023-02-16T15:17:40.020Z,56.95
2023-02-16T15:20:10.863Z,58.72
2023-02-16T15:22:44.452Z,55.92
2023-02-16T15:25:40.840Z,58.50
2023-02-16T15:28:09.817Z,60.88
2023-02-16T15:31:08.697Z,58.83
2023-02-16T15:33:57.885Z,54.75
2023-02-16T15:36:51.524Z,59.45
2023-02-16T15:39:56.028Z,65.93
2023-02-16T15:42:34.184Z,63.50
2023-02-16T15:46:00.690Z,57.25
2023-02-16T15:48:35.184Z,76.30
2023-02-16T15:51:25.304Z,68.22
2023-02-16T15:53:57.509Z,64.90
2023-02-16T15:56:31.310Z,60.92
2023-02-16T15:59:03.793Z,60.53
2023-02-16T16:01:36.094Z,62.45
2023-02-16T16:04:23.527Z,65.13
2023-02-16T16:06:53.134Z,61.40
2023-02-16T16:09:35.709Z,70.32
2023-02-16T16:29:30.174Z,64.53
2023-02-16T16:31:59.043Z,68.07
2023-02-16T16:48:31.820Z,63.60
2023-02-16T16:51:17.400Z,72.25
2023-02-16T16:53:54.445Z,69.97
2023-02-16T16:56:24.497Z,65.43
2023-02-16T16:58:56.865Z,66.50
2023-02-16T17:01:29.036Z,66.32
2023-02-16T17:06:27.035Z,74.30
2023-02-16T17:08:55.391Z,75.70
2023-02-16T17:11:30.063Z,73.10
2023-02-16T17:14:15.741Z,83.88
2023-02-16T17:16:47.005Z,80.25
2023-02-16T17:19:17.138Z,82.68
2023-02-16T17:21:47.509Z,79.40
2023-02-16T17:24:16.602Z,70.47
2023-02-16T17:26:45.995Z,74.80
2023-02-16T17:29:16.144Z,72.65
2023-02-16T17:31:45.023Z,74.78
2023-02-16T17:34:13.957Z,76.63
2023-02-16T17:36:46.035Z,73.93
2023-02-16T17:39:15.457Z,73.65
2023-02-16T17:41:44.936Z,78.80
2023-02-16T17:44:13.267Z,75.93
2023-02-16T17:46:42.507Z,79.10
2023-02-16T17:49:12.476Z,78.90
2023-02-16T17:51:41.790Z,78.68
2023-02-16T17:54:10.380Z,73.15
2023-02-16T17:56:40.208Z,71.60
2023-02-16T17:59:36.735Z,74.07
2023-02-16T18:02:11.783Z,74.47
2023-02-16T18:04:42.984Z,79.25
2023-02-16T18:07:16.810Z,79.85
2023-02-16T18:09:46.184Z,78.07
2023-02-16T18:12:15.273Z,76.72
2023-02-16T18:14:43.608Z,71.57
2023-02-16T18:17:12.905Z,77.53
2023-02-16T18:19:41.475Z,81.68
2023-02-16T18:22:10.671Z,71.80
2023-02-16T18:24:39.168Z,73.93
2023-02-16T18:27:07.800Z,79.38
2023-02-16T18:29:36.125Z,81.80
2023-02-16T18:32:04.973Z,85.28
2023-02-16T18:34:35.172Z,79.47
2023-02-16T18:37:04.111Z,79.63
2023-02-16T18:39:32.611Z,77.93
2023-02-16T18:42:03.385Z,81.80
2023-02-16T18:44:31.993Z,83.70
2023-02-16T18:47:00.585Z,81.20
2023-02-16T18:49:28.875Z,76.45
2023-02-16T18:52:48.652Z,78.72
2023-02-16T18:55:17.396Z,80.32
2023-02-16T18:58:14.224Z,82.72
2023-02-16T19:00:43.203Z,76.88
2023-02-16T19:03:47.984Z,84.15
2023-02-16T19:09:07.026Z,85.55
2023-02-16T19:11:22.672Z,79.45
2023-02-16T19:13:54.903Z,76.25
2023-02-16T19:16:23.649Z,79.15
2023-02-16T19:19:17.767Z,85.63
2023-02-16T19:21:46.704Z,83.00
2023-02-16T19:24:15.218Z,78.15
2023-02-16T19:26:47.164Z,82.07
2023-02-16T19:29:42.024Z,86.18
2023-02-16T19:32:12.473Z,77.95
2023-02-16T19:34:41.428Z,83.15
2023-02-16T19:37:10.257Z,78.65
2023-02-16T19:39:39.717Z,76.45
2023-02-16T19:42:08.527Z,74.40
2023-02-16T19:44:48.513Z,72.65
2023-02-16T19:48:03.741Z,76.13
2023-02-16T19:50:32.064Z,79.57
2023-02-16T19:53:05.989Z,76.25
2023-02-16T19:59:24.231Z,75.72
2023-02-16T20:07:36.166Z,78.07
2023-02-16T20:10:07.194Z,77.07
2023-02-16T20:13:01.914Z,74.93
2023-02-16T20:15:30.974Z,74.13
2023-02-16T20:18:03.414Z,74.47
2023-02-16T20:20:32.340Z,76.05
2023-02-16T20:23:01.014Z,74.75
2023-02-16T20:25:33.082Z,72.70
2023-02-16T20:28:01.782Z,73.00
2023-02-16T20:30:31.128Z,69.20
2023-02-16T20:32:59.713Z,73.28
2023-02-16T20:35:28.334Z,70.70
2023-02-16T20:37:56.691Z,72.57
2023-02-16T20:40:25.616Z,71.85
2023-02-16T20:42:54.201Z,69.82
2023-02-16T20:45:23.272Z,67.72
2023-02-16T20:47:53.718Z,71.40
2023-02-16T20:50:22.608Z,68.50
2023-02-16T20:52:52.071Z,75.85
2023-02-16T20:55:21.854Z,78.05
2023-02-16T20:57:50.295Z,76.32
2023-02-16T21:00:21.878Z,83.05
2023-02-16T21:02:52.584Z,82.70
2023-02-16T21:05:22.915Z,81.30
2023-02-16T21:07:51.392Z,74.82
2023-02-16T21:10:22.203Z,78.05
2023-02-16T21:12:50.629Z,85.75
2023-02-16T21:15:22.035Z,87.38
2023-02-16T21:17:50.551Z,90.10
2023-02-16T21:20:19.408Z,85.00
2023-02-16T21:22:47.734Z,66.72
2023-02-16T21:25:16.782Z,69.68
2023-02-16T21:28:10.406Z,68.88
2023-02-16T21:30:39.423Z,70.95
2023-02-16T21:33:09.754Z,76.00
2023-02-16T21:36:34.659Z,83.72
2023-02-16T21:39:03.677Z,74.30
2023-02-16T21:41:32.957Z,69.80
2023-02-16T21:44:20.054Z,71.75
2023-02-16T21:46:50.183Z,70.80
2023-02-16T21:49:20.252Z,68.78
2023-02-16T21:51:49.702Z,67.03
2023-02-16T21:54:39.716Z,73.70
2023-02-16T21:57:08.609Z,73.07
2023-02-16T21:59:37.907Z,71.45
2023-02-16T22:02:12.979Z,69.10
2023-02-16T22:04:41.456Z,65.63
2023-02-16T22:07:10.140Z,68.65
2023-02-16T22:09:38.398Z,66.32
2023-02-16T22:12:07.249Z,72.05
2023-02-16T22:14:36.255Z,70.88
2023-02-16T22:17:14.058Z,80.00
2023-02-16T22:19:42.290Z,80.70
2023-02-16T22:22:11.621Z,76.53
2023-02-16T22:24:39.977Z,72.97
2023-02-16T22:27:08.683Z,66.25
2023-02-16T22:29:39.126Z,67.97
2023-02-16T22:32:07.809Z,65.47
2023-02-16T22:34:37.119Z,69.80
2023-02-16T22:37:05.770Z,79.57
2023-02-16T22:39:34.120Z,65.53
2023-02-16T22:42:02.909Z,75.47
2023-02-16T22:44:31.114Z,75.20
2023-02-16T22:46:59.862Z,75.63
2023-02-16T22:49:28.225Z,73.43
2023-02-16T22:51:57.781Z,67.20
2023-02-16T22:54:27.692Z,65.40
2023-02-16T22:56:57.595Z,66.63
2023-02-16T22:59:26.078Z,65.32
2023-02-16T23:01:54.627Z,66.57
2023-02-16T23:04:24.373Z,64.00
2023-02-16T23:06:53.011Z,69.75
2023-02-16T23:09:22.105Z,67.82
2023-02-16T23:11:51.137Z,68.72
2023-02-16T23:14:19.736Z,70.07
2023-02-16T23:16:54.567Z,68.70
2023-02-16T23:19:26.105Z,72.07
2023-02-16T23:21:55.312Z,68.53
2023-02-16T23:24:24.502Z,68.38
2023-02-16T23:29:35.717Z,87.93
2023-02-16T23:32:06.671Z,82.28
2023-02-16T23:34:34.956Z,77.65
2023-02-16T23:37:03.460Z,87.10
2023-02-16T23:39:31.773Z,90.95
2023-02-16T23:42:00.477Z,90.55
2023-02-16T23:44:28.819Z,74.70
2023-02-16T23:46:57.423Z,80.47
2023-02-16T23:49:25.762Z,72.18
2023-02-16T23:51:54.480Z,66.25
2023-02-16T23:54:23.022Z,64.50
2023-02-16T23:56:52.817Z,64.55
2023-02-16T23:59:21.370Z,64.05
